Perisher Village, Australia

11:22 PM AEST on May 28, 2017 (GMT +1000)
Beaureden Conservation Area | | Change Station

Elev 3842 ft 36.56 °S, 148.57 °E | Updated 19 seconds ago

Overcast
Overcast
34.7 °F
Feels Like 35 °F
N
2.9
Wind Variable Wind from NNW
Gusts 4.9 mph

Today
High -- | Low -- °F
--% Chance of Precip.
Yesterday
High -- | Low -- °F
Precip. -- in
Pressure 29.86 in
Visibility 6.2 miles
Clouds Scattered Clouds 2400 ft
Scattered Clouds 3600 ft
Windchill 35 °F
Dew Point 30 °F
Humidity 82%
Rainfall 0.06 in
Snow Depth Not available.
7:06 AM 5:00 PM
Waxing Crescent, 11% visible
METAR YCOM 281300Z AUTO 24010KT 9999 // SCT024 SCT036 02/02 Q1011
Pressure 29.86 in
Visibility 6.2 miles
Clouds Scattered Clouds 2400 ft
Scattered Clouds 3600 ft
Windchill 35 °F
Dew Point 30 °F
Humidity 82%
Rainfall 0.06 in
Snow Depth Not available.
7:06 AM 5:00 PM
Waxing Crescent, 11% visible
METAR YCOM 281300Z AUTO 24010KT 9999 // SCT024 SCT036 02/02 Q1011

Get Severe Weather Alerts

Thanks for signing up!

Be on the lookout for a verification email in your inbox.

You'll start receiving the daily forecast at 6 AM.

×

10-Day Weather Forecast

×

Almanac

Astronomy

May. 28, 2017 Rise Set
Actual Time
Civil Twilight
Nautical Twilight
Astronomical Twilight
Moon
Length of Visible Light
Length of Day
Tomorrow will be .
, % of the Moon is Illuminated

Today's Extremes

Country Highs Country Lows

Community

WunderPhotos

Category 6

Welcome to Category 6. This is the collective home for Weather Underground's featured writeups by Dr. Jeff Masters (right), Bob Henson (left), Chris Burt, and other regular contributors.

Nearby

Air Quality

  Air Quality AQ Index Pollutant
Not available.

Snow Depth

Station Depth Elevation

Earthquake Activity

City Distance Mag. Time & Date
Minimum magnitude displayed is 2.5.

Coastal Water Temperatures

Place Temperature

Stations

Nearby Weather Stations

Station Location Temp. Windchill Dew Point Humidity Wind Precip. Elev Updated Type